Time;durP1;ratioP1;P1;durP2;ratioP2;P2;SDS_P1;SDS_P2;PMS_P1;PMS_P2;Temp;Humidity;BMP_temperature;BMP_pressure;BME280_temperature;BME280_humidity;BME280_pressure;Samples;Min_cycle;Max_cycle;Signal;HPM_P1;HPM_P2
2023/06/30 00:02:10;;;;;;;12.70;10.97;;;;;;;21.48;62.01;95889.25;5050026;28;20175;-72
2023/06/30 00:04:36;;;;;;;14.43;11.77;;;;;;;21.43;62.06;95883.50;5049471;28;20199;-68
2023/06/30 00:07:01;;;;;;;15.53;10.17;;;;;;;21.45;61.91;95878.84;5049855;28;20905;-70
2023/06/30 00:09:27;;;;;;;16.17;11.67;;;;;;;21.40;62.41;95878.44;5049995;28;20170;-68
2023/06/30 00:11:54;;;;;;;21.27;11.53;;;;;;;21.46;61.94;95876.03;5049772;28;20628;-69
2023/06/30 00:14:21;;;;;;;16.20;11.23;;;;;;;21.57;61.34;95864.31;5049588;28;20433;-68
2023/06/30 00:16:50;;;;;;;17.13;11.63;;;;;;;21.54;61.50;95868.13;5048666;28;20444;-69
2023/06/30 00:19:19;;;;;;;17.30;13.33;;;;;;;21.59;61.56;95873.03;5049834;28;20491;-68
2023/06/30 00:21:45;;;;;;;13.77;11.53;;;;;;;21.51;61.72;95863.06;5049285;28;20567;-69
2023/06/30 00:24:12;;;;;;;14.50;12.03;;;;;;;21.61;61.60;95868.34;5048854;28;20860;-69
2023/06/30 00:26:39;;;;;;;15.43;12.23;;;;;;;21.66;61.48;95870.59;5049383;28;20174;-68
2023/06/30 00:29:05;;;;;;;18.43;13.00;;;;;;;21.62;61.41;95871.91;5048914;28;20447;-69
2023/06/30 00:31:30;;;;;;;22.20;13.97;;;;;;;21.63;61.38;95863.72;5049421;28;20444;-69
2023/06/30 00:33:56;;;;;;;14.47;11.70;;;;;;;21.71;61.24;95853.16;5048421;28;20453;-69
2023/06/30 00:36:22;;;;;;;15.10;13.27;;;;;;;21.61;61.71;95855.00;5064116;28;20179;-69
2023/06/30 00:38:47;;;;;;;15.20;13.10;;;;;;;21.54;61.84;95848.59;5049305;28;20405;-68
2023/06/30 00:41:13;;;;;;;13.90;12.60;;;;;;;21.54;61.78;95852.13;5049411;28;20206;-68
2023/06/30 00:43:39;;;;;;;17.40;13.63;;;;;;;21.52;62.01;95839.88;5048523;28;20198;-68
2023/06/30 00:46:05;;;;;;;14.27;12.50;;;;;;;21.36;62.53;95841.34;5048827;28;20542;-69
2023/06/30 00:48:30;;;;;;;16.20;13.80;;;;;;;21.23;63.02;95832.81;5048925;28;20171;-69
2023/06/30 00:50:56;;;;;;;13.70;12.30;;;;;;;21.15;63.29;95843.41;5049182;28;20749;-68
2023/06/30 00:53:22;;;;;;;14.60;13.10;;;;;;;21.13;63.76;95832.84;5048895;28;20576;-68
2023/06/30 00:55:50;;;;;;;15.63;13.40;;;;;;;21.21;63.10;95823.28;5048516;28;20185;-69
2023/06/30 00:58:15;;;;;;;17.37;13.60;;;;;;;21.07;63.89;95824.59;5048555;28;20511;-67
2023/06/30 01:00:41;;;;;;;20.13;14.27;;;;;;;20.88;64.80;95823.69;5047429;28;20449;-68
2023/06/30 01:03:51;;;;;;;18.37;14.33;;;;;;;20.83;64.99;95825.94;5048716;28;20181;-70
2023/06/30 01:06:30;;;;;;;19.60;15.77;;;;;;;21.05;64.06;95824.75;5046544;28;20183;-69
2023/06/30 01:09:04;;;;;;;18.50;13.87;;;;;;;21.14;64.00;95823.03;5048553;28;20965;-68
2023/06/30 01:11:31;;;;;;;19.30;14.30;;;;;;;21.23;63.21;95818.63;5048790;28;20502;-72
2023/06/30 01:13:58;;;;;;;13.93;12.63;;;;;;;21.07;64.16;95812.13;5047925;28;20448;-68
2023/06/30 01:16:26;;;;;;;25.50;15.43;;;;;;;21.18;63.55;95811.06;5047615;28;20414;-69
2023/06/30 01:18:53;;;;;;;15.13;13.50;;;;;;;21.29;63.18;95816.22;5047937;28;20945;-68
2023/06/30 01:21:21;;;;;;;50.53;17.90;;;;;;;21.28;63.08;95809.22;5048016;28;20540;-69
2023/06/30 01:24:04;;;;;;;31.77;15.30;;;;;;;21.30;63.21;95811.72;5047611;28;20463;-68
2023/06/30 01:26:34;;;;;;;15.60;13.43;;;;;;;21.26;63.24;95811.19;5048350;28;20409;-68
2023/06/30 01:29:02;;;;;;;16.17;14.10;;;;;;;21.29;63.46;95808.22;5048361;28;20417;-70
2023/06/30 01:31:31;;;;;;;19.77;14.07;;;;;;;21.25;63.29;95804.16;5048669;28;20982;-69
2023/06/30 01:33:57;;;;;;;37.73;16.40;;;;;;;21.15;63.74;95798.88;5052164;28;20425;-69
2023/06/30 01:36:22;;;;;;;22.10;14.00;;;;;;;21.14;63.83;95801.69;5048324;28;20414;-68
2023/06/30 01:38:47;;;;;;;19.63;17.10;;;;;;;20.81;64.94;95801.25;5047928;28;20440;-69
2023/06/30 01:41:13;;;;;;;16.80;14.57;;;;;;;20.58;65.93;95794.59;5048009;28;20203;-69
2023/06/30 01:43:40;;;;;;;30.43;16.20;;;;;;;20.80;65.26;95793.41;5047431;28;20197;-69
2023/06/30 01:46:06;;;;;;;22.80;15.20;;;;;;;20.62;65.83;95790.63;5047722;28;20236;-67
2023/06/30 01:48:32;;;;;;;33.43;15.20;;;;;;;20.50;66.43;95793.44;5047882;28;20417;-69
2023/06/30 01:50:59;;;;;;;15.80;14.20;;;;;;;20.36;66.96;95790.38;5047394;28;20893;-68
2023/06/30 01:53:25;;;;;;;20.17;15.27;;;;;;;20.20;67.49;95789.13;5045739;28;21194;-69
2023/06/30 01:55:52;;;;;;;17.70;14.40;;;;;;;20.36;67.12;95790.38;5047177;28;20421;-68
2023/06/30 01:58:17;;;;;;;22.33;14.60;;;;;;;20.30;67.64;95792.63;5047046;28;20524;-69
2023/06/30 02:00:43;;;;;;;33.33;17.00;;;;;;;20.49;66.41;95783.75;5045551;28;20546;-69
2023/06/30 02:03:08;;;;;;;17.37;15.30;;;;;;;20.23;67.68;95791.50;5047158;28;20228;-69
2023/06/30 02:05:33;;;;;;;18.60;14.63;;;;;;;20.13;68.08;95784.53;5046769;28;20620;-68
2023/06/30 02:07:59;;;;;;;19.97;14.57;;;;;;;20.18;67.85;95776.94;5047033;28;20702;-68
2023/06/30 02:10:25;;;;;;;21.03;15.43;;;;;;;20.10;68.37;95780.28;5047065;28;20182;-68
2023/06/30 02:12:50;;;;;;;18.10;13.53;;;;;;;20.47;67.14;95776.88;5047400;28;20816;-68
2023/06/30 02:15:16;;;;;;;16.20;13.63;;;;;;;20.60;66.43;95771.28;5047149;28;20441;-68
2023/06/30 02:17:41;;;;;;;15.90;14.30;;;;;;;20.70;65.89;95778.28;5047474;28;20194;-68
2023/06/30 02:20:07;;;;;;;14.37;13.07;;;;;;;20.70;66.02;95780.09;5047389;28;20206;-67
2023/06/30 02:22:33;;;;;;;26.57;14.13;;;;;;;20.57;66.24;95774.22;5047218;28;20286;-68
2023/06/30 02:25:00;;;;;;;15.40;13.80;;;;;;;20.57;66.28;95774.22;5047468;28;20512;-69
2023/06/30 02:27:26;;;;;;;21.83;15.20;;;;;;;20.69;65.71;95773.06;5046929;28;20413;-68
2023/06/30 02:29:51;;;;;;;16.63;13.90;;;;;;;20.49;66.55;95767.75;5046701;28;20409;-68
2023/06/30 02:32:17;;;;;;;18.40;15.40;;;;;;;20.24;67.59;95761.22;5046812;28;20417;-69
2023/06/30 02:34:42;;;;;;;18.87;16.20;;;;;;;20.28;67.18;95759.94;5046229;28;20194;-68
2023/06/30 02:37:08;;;;;;;23.13;15.40;;;;;;;19.87;69.17;95763.78;5046588;28;20216;-68
2023/06/30 02:39:33;;;;;;;17.90;15.63;;;;;;;19.74;70.05;95761.38;5046387;28;20174;-68
2023/06/30 02:41:59;;;;;;;17.87;16.10;;;;;;;19.84;69.59;95756.91;5046753;28;20166;-69
2023/06/30 02:44:24;;;;;;;19.03;15.20;;;;;;;19.93;69.17;95757.03;5046549;28;20705;-68
2023/06/30 02:46:50;;;;;;;19.50;16.60;;;;;;;19.90;69.41;95768.00;5047111;28;20795;-68
2023/06/30 02:49:15;;;;;;;22.37;16.40;;;;;;;19.95;69.21;95769.22;5046532;28;20683;-68
2023/06/30 02:51:41;;;;;;;42.97;20.20;;;;;;;20.18;68.29;95771.63;5047008;28;20260;-67
2023/06/30 02:54:06;;;;;;;30.80;18.10;;;;;;;20.27;68.01;95776.09;5046166;28;20252;-67
2023/06/30 02:56:32;;;;;;;35.60;18.30;;;;;;;20.45;67.42;95769.03;5046481;28;20186;-69
2023/06/30 02:58:57;;;;;;;21.33;15.33;;;;;;;20.31;67.71;95769.47;5046424;28;20187;-68
2023/06/30 03:01:22;;;;;;;32.33;18.50;;;;;;;20.43;67.42;95770.16;5046390;28;20190;-68
2023/06/30 03:03:48;;;;;;;20.90;15.07;;;;;;;20.55;67.09;95771.69;5045923;28;20199;-68
2023/06/30 03:06:14;;;;;;;17.10;15.30;;;;;;;20.58;66.80;95766.09;5046325;28;20202;-69
2023/06/30 03:08:39;;;;;;;69.90;19.77;;;;;;;20.57;66.85;95763.56;5046664;28;20175;-69
2023/06/30 03:11:05;;;;;;;39.43;16.37;;;;;;;20.57;66.89;95766.22;5047824;28;20178;-68
2023/06/30 03:13:30;;;;;;;34.60;16.90;;;;;;;20.51;67.12;95759.63;5045603;28;20217;-69
2023/06/30 03:15:56;;;;;;;20.10;17.40;;;;;;;20.56;66.24;95764.56;5046619;28;20167;-69
2023/06/30 03:18:21;;;;;;;26.70;16.40;;;;;;;20.48;66.86;95768.75;5046784;28;20210;-68
2023/06/30 03:20:47;;;;;;;23.33;15.93;;;;;;;20.13;68.46;95764.06;5046378;28;20238;-69
2023/06/30 03:23:14;;;;;;;18.40;16.13;;;;;;;20.03;68.95;95768.53;5045482;28;20261;-69
2023/06/30 03:25:39;;;;;;;22.17;16.03;;;;;;;19.83;69.51;95759.72;5046144;28;20274;-70
2023/06/30 03:28:05;;;;;;;19.37;17.57;;;;;;;19.93;68.91;95752.56;5045935;28;20417;-69
2023/06/30 03:30:30;;;;;;;19.13;17.17;;;;;;;19.89;69.35;95756.50;5046345;28;20203;-69
2023/06/30 03:32:55;;;;;;;30.93;18.30;;;;;;;19.88;69.40;95760.13;5046155;28;20184;-69
2023/06/30 03:35:21;;;;;;;27.90;16.33;;;;;;;19.86;69.39;95754.94;5045824;28;20819;-68
2023/06/30 03:37:46;;;;;;;23.87;17.47;;;;;;;20.16;68.21;95763.75;5044299;28;20171;-68
2023/06/30 03:40:12;;;;;;;22.37;17.47;;;;;;;19.92;69.11;95756.22;5045800;28;20660;-69
2023/06/30 03:42:38;;;;;;;22.33;16.93;;;;;;;19.90;69.42;95763.50;5045800;28;20167;-68
2023/06/30 03:45:04;;;;;;;28.00;18.83;;;;;;;19.95;69.36;95758.59;5045467;28;21208;-68
2023/06/30 03:47:29;;;;;;;30.83;21.47;;;;;;;19.97;69.47;95759.28;5045737;28;20252;-69
2023/06/30 03:49:55;;;;;;;50.10;21.50;;;;;;;20.04;69.20;95755.06;5051350;28;21124;-68
2023/06/30 03:52:20;;;;;;;21.00;18.27;;;;;;;19.84;69.70;95758.72;5052969;28;20179;-69
2023/06/30 03:54:46;;;;;;;18.80;16.90;;;;;;;19.89;69.45;95748.50;5046530;28;20255;-69
2023/06/30 03:57:11;;;;;;;25.93;19.37;;;;;;;19.71;70.16;95745.69;5046007;28;20645;-69
2023/06/30 03:59:36;;;;;;;24.07;18.77;;;;;;;19.57;71.31;95756.72;5044298;28;20308;-69
2023/06/30 04:02:02;;;;;;;30.30;20.00;;;;;;;19.87;69.69;95747.81;5046728;28;20220;-69
2023/06/30 04:04:27;;;;;;;30.37;19.27;;;;;;;19.93;69.73;95749.06;5045455;28;20201;-69
2023/06/30 04:06:53;;;;;;;26.67;19.37;;;;;;;20.16;69.02;95741.63;5046116;28;20585;-68
2023/06/30 04:09:18;;;;;;;40.37;21.57;;;;;;;19.93;70.00;95751.72;5045641;28;20648;-69
2023/06/30 04:11:44;;;;;;;37.73;20.60;;;;;;;20.11;69.39;95749.19;5046135;28;20274;-69
2023/06/30 04:14:09;;;;;;;40.80;21.10;;;;;;;19.89;70.09;95745.84;5045116;28;20195;-68
2023/06/30 04:16:35;;;;;;;76.07;25.17;;;;;;;20.01;69.56;95750.03;5045550;28;20183;-69
2023/06/30 04:19:00;;;;;;;35.53;21.40;;;;;;;20.03;69.65;95747.22;5045286;28;20195;-69
2023/06/30 04:21:26;;;;;;;23.67;21.10;;;;;;;19.84;70.10;95753.38;5045549;28;20202;-70
2023/06/30 04:23:51;;;;;;;21.90;19.57;;;;;;;20.07;69.71;95749.47;5045039;28;20203;-69
2023/06/30 04:26:17;;;;;;;58.13;21.90;;;;;;;20.28;68.70;95751.94;5045448;28;20175;-70
2023/06/30 04:28:43;;;;;;;49.80;21.30;;;;;;;20.41;68.24;95740.13;5045149;28;20839;-69
2023/06/30 04:31:08;;;;;;;32.70;20.33;;;;;;;20.38;68.19;95743.94;5045850;28;20171;-69
2023/06/30 04:33:34;;;;;;;51.77;22.90;;;;;;;20.47;67.75;95748.41;5045729;28;20440;-68
2023/06/30 04:35:59;;;;;;;31.30;20.10;;;;;;;20.55;67.64;95741.50;5049563;28;20174;-68
2023/06/30 04:38:25;;;;;;;43.80;21.80;;;;;;;20.54;67.63;95739.84;5049266;28;20183;-68
2023/06/30 04:40:50;;;;;;;26.30;21.17;;;;;;;20.56;67.56;95738.75;5048992;28;20277;-69
2023/06/30 04:43:16;;;;;;;25.50;20.40;;;;;;;20.62;67.70;95745.31;5048567;28;20167;-69
2023/06/30 04:45:42;;;;;;;41.53;21.93;;;;;;;20.53;67.85;95741.69;5048741;28;20178;-70
2023/06/30 04:48:07;;;;;;;36.03;23.13;;;;;;;20.53;67.97;95739.00;5049042;28;20177;-69
2023/06/30 04:50:33;;;;;;;32.80;21.50;;;;;;;20.40;68.52;95733.97;5048938;28;20924;-69
2023/06/30 04:52:59;;;;;;;26.70;20.90;;;;;;;20.29;68.94;95742.13;5048471;28;20221;-70
2023/06/30 04:55:24;;;;;;;26.73;21.40;;;;;;;20.25;69.29;95735.44;5048420;28;20595;-70
2023/06/30 04:57:49;;;;;;;26.57;20.50;;;;;;;20.20;69.42;95735.03;5048557;28;20228;-70
2023/06/30 05:00:15;;;;;;;31.40;21.37;;;;;;;20.15;69.74;95723.94;5048260;28;20214;-68
2023/06/30 05:02:40;;;;;;;41.23;21.13;;;;;;;20.19;69.77;95725.34;5045335;28;20188;-70
2023/06/30 05:05:06;;;;;;;33.33;21.90;;;;;;;20.25;69.48;95727.44;5047235;28;20203;-69
2023/06/30 05:07:32;;;;;;;26.03;21.40;;;;;;;20.22;69.53;95730.38;5039692;28;20179;-68
2023/06/30 05:09:57;;;;;;;34.87;23.73;;;;;;;20.23;70.02;95734.72;5039392;28;20421;-71
2023/06/30 05:12:23;;;;;;;36.40;24.13;;;;;;;20.06;71.18;95728.31;5029148;28;20673;-69
2023/06/30 05:14:49;;;;;;;34.37;23.43;;;;;;;20.05;71.16;95735.44;5028400;28;20195;-69
2023/06/30 05:17:14;;;;;;;44.30;23.80;;;;;;;20.13;71.08;95736.56;5028462;28;20189;-71
2023/06/30 05:19:41;;;;;;;43.83;24.73;;;;;;;20.21;71.07;95736.69;5046092;28;20190;-69
2023/06/30 05:22:07;;;;;;;24.37;21.30;;;;;;;20.27;71.21;95736.97;5048597;28;20182;-71
2023/06/30 05:24:33;;;;;;;33.07;22.17;;;;;;;20.11;71.68;95735.88;5049908;28;20843;-70
2023/06/30 05:26:59;;;;;;;54.53;24.20;;;;;;;20.19;72.39;95743.97;5048727;28;20175;-69
2023/06/30 05:29:25;;;;;;;57.60;24.23;;;;;;;20.29;71.68;95737.66;5048867;28;20413;-69
2023/06/30 05:31:51;;;;;;;42.27;23.63;;;;;;;20.24;71.63;95739.06;5048679;28;20974;-68
2023/06/30 05:34:16;;;;;;;26.70;21.30;;;;;;;20.15;72.16;95739.91;5047881;28;20536;-71
2023/06/30 05:36:44;;;;;;;29.20;22.50;;;;;;;20.11;72.58;95736.72;5048524;28;20182;-71
2023/06/30 05:39:10;;;;;;;39.13;23.30;;;;;;;20.24;72.48;95737.22;5047860;28;20178;-70
2023/06/30 05:41:35;;;;;;;52.07;26.80;;;;;;;20.39;72.41;95739.47;5048486;28;20469;-71
2023/06/30 05:44:01;;;;;;;38.40;23.53;;;;;;;20.52;72.02;95740.81;5047938;28;20736;-70
2023/06/30 05:46:26;;;;;;;34.80;21.17;;;;;;;20.64;71.44;95751.34;5047721;28;20740;-74
2023/06/30 05:48:51;;;;;;;36.80;28.27;;;;;;;20.78;70.96;95742.88;5048198;28;20266;-70
2023/06/30 05:51:17;;;;;;;29.47;22.63;;;;;;;20.85;70.29;95740.47;5047852;28;20179;-71
2023/06/30 05:53:42;;;;;;;44.07;23.60;;;;;;;20.87;70.23;95742.00;5047613;28;20285;-71
2023/06/30 05:56:07;;;;;;;42.23;23.37;;;;;;;21.00;70.20;95740.81;5047197;28;20182;-70
2023/06/30 05:58:34;;;;;;;37.57;22.83;;;;;;;21.10;69.02;95742.44;5045253;28;20190;-71
2023/06/30 06:00:59;;;;;;;51.03;22.90;;;;;;;21.22;68.06;95735.09;5048155;28;20226;-71
2023/06/30 06:03:30;;;;;;;34.07;22.00;;;;;;;21.11;69.75;95735.28;5050682;28;20445;-71
2023/06/30 06:05:56;;;;;;;34.80;23.37;;;;;;;21.18;69.72;95739.03;5051060;28;20179;-71
2023/06/30 06:08:21;;;;;;;32.40;21.83;;;;;;;21.16;69.50;95746.34;5051247;28;20420;-70
2023/06/30 06:10:48;;;;;;;32.07;22.67;;;;;;;21.17;69.14;95757.88;5048388;28;20228;-71
2023/06/30 06:13:39;;;;;;;50.87;24.57;;;;;;;21.11;69.36;95760.13;5047098;28;20186;-70
2023/06/30 06:16:06;;;;;;;54.67;25.43;;;;;;;21.20;69.00;95758.41;5047017;28;20425;-70
2023/06/30 06:18:31;;;;;;;34.60;24.23;;;;;;;21.15;69.50;95763.34;5052774;28;20433;-70
2023/06/30 06:20:58;;;;;;;30.27;23.73;;;;;;;21.23;69.47;95763.44;5045888;28;20465;-70
2023/06/30 06:23:24;;;;;;;29.37;24.40;;;;;;;21.20;69.58;95758.41;5046578;28;21533;-71
2023/06/30 06:25:50;;;;;;;49.67;24.80;;;;;;;21.41;69.14;95762.69;5046953;28;20476;-70
2023/06/30 06:28:16;;;;;;;46.83;25.53;;;;;;;21.24;69.81;95764.31;5061880;28;20433;-70
2023/06/30 06:30:42;;;;;;;50.80;25.87;;;;;;;21.20;70.49;95773.59;5047373;28;20417;-71
2023/06/30 06:33:07;;;;;;;38.37;24.33;;;;;;;21.05;70.86;95781.25;5046375;28;20909;-68
2023/06/30 06:35:33;;;;;;;31.37;25.03;;;;;;;20.92;71.39;95782.38;5046875;28;20232;-69
2023/06/30 06:38:00;;;;;;;30.60;23.73;;;;;;;20.92;71.64;95779.72;5046723;28;20179;-69
2023/06/30 06:40:25;;;;;;;34.03;24.70;;;;;;;20.94;71.17;95782.25;5046354;28;20286;-69
2023/06/30 06:42:50;;;;;;;40.17;25.00;;;;;;;20.91;71.89;95786.06;5046472;28;20603;-68
2023/06/30 06:45:17;;;;;;;48.23;26.00;;;;;;;20.85;72.14;95775.13;5045021;28;20195;-69
2023/06/30 06:48:20;;;;;;;29.23;24.40;;;;;;;20.97;71.20;95783.78;5041861;28;20197;-68
2023/06/30 06:50:47;;;;;;;30.90;24.20;;;;;;;20.79;71.89;95786.38;5031870;28;20874;-70
2023/06/30 06:53:22;;;;;;;31.17;25.50;;;;;;;20.68;71.95;95785.56;5045790;28;20460;-68
2023/06/30 06:55:49;;;;;;;65.10;27.90;;;;;;;20.74;71.81;95794.84;5046098;28;20437;-69
2023/06/30 06:58:15;;;;;;;34.60;25.10;;;;;;;20.77;71.88;95789.19;5045319;28;20474;-70
2023/06/30 07:00:41;;;;;;;36.97;23.80;;;;;;;20.84;71.54;95787.63;5046235;28;20530;-69
2023/06/30 07:03:06;;;;;;;29.57;23.07;;;;;;;20.71;72.15;95790.59;5046307;28;20268;-67
2023/06/30 07:05:32;;;;;;;30.83;25.10;;;;;;;20.81;71.84;95792.41;5045856;28;20473;-70
2023/06/30 07:07:57;;;;;;;32.07;25.20;;;;;;;20.77;72.16;95796.38;5047460;28;20592;-70
2023/06/30 07:10:23;;;;;;;34.30;25.73;;;;;;;20.76;72.44;95795.50;5046628;28;20249;-70
2023/06/30 07:12:48;;;;;;;41.23;23.13;;;;;;;20.71;72.38;95800.44;5046157;28;20247;-69
2023/06/30 07:15:14;;;;;;;35.57;25.00;;;;;;;20.70;72.46;95802.25;5045934;28;20194;-68
2023/06/30 07:17:39;;;;;;;34.30;23.40;;;;;;;20.65;72.82;95798.38;5045783;28;20202;-69
2023/06/30 07:20:05;;;;;;;32.67;25.57;;;;;;;20.68;72.79;95806.06;5046381;28;20202;-68
2023/06/30 07:22:32;;;;;;;30.83;26.10;;;;;;;20.60;73.52;95805.91;5046422;28;20185;-69
2023/06/30 07:24:58;;;;;;;33.00;24.60;;;;;;;20.69;73.85;95810.41;5045923;28;20263;-69
2023/06/30 07:27:23;;;;;;;36.70;27.27;;;;;;;20.45;75.44;95811.66;5046516;28;20478;-70
2023/06/30 07:29:50;;;;;;;42.17;26.37;;;;;;;20.55;75.50;95809.03;5045761;28;20170;-69
2023/06/30 07:32:16;;;;;;;57.77;28.77;;;;;;;20.53;75.78;95808.31;5046241;28;20261;-68
2023/06/30 07:34:42;;;;;;;31.77;25.47;;;;;;;20.56;75.64;95809.88;5045635;28;20447;-70
2023/06/30 07:37:07;;;;;;;31.67;23.40;;;;;;;20.45;75.40;95817.00;5046170;28;20417;-68
2023/06/30 07:39:34;;;;;;;44.10;24.87;;;;;;;20.44;75.08;95804.66;5046543;28;20199;-69
2023/06/30 07:41:59;;;;;;;29.10;22.47;;;;;;;20.61;74.91;95808.47;5045705;28;20305;-70
2023/06/30 07:44:25;;;;;;;28.60;22.37;;;;;;;20.61;74.44;95812.97;5046004;28;21270;-67
2023/06/30 07:46:50;;;;;;;31.87;23.63;;;;;;;20.54;74.41;95809.97;5045933;28;20185;-67
2023/06/30 07:49:15;;;;;;;35.67;22.47;;;;;;;20.59;74.35;95812.25;5046084;28;20170;-69
2023/06/30 07:51:41;;;;;;;37.07;22.63;;;;;;;20.55;74.63;95816.16;5046233;28;20210;-70
2023/06/30 07:54:07;;;;;;;33.77;23.70;;;;;;;20.56;74.50;95828.53;5046229;28;20199;-70
2023/06/30 07:56:33;;;;;;;42.50;25.27;;;;;;;20.49;73.98;95822.91;5048019;28;20911;-68
2023/06/30 07:58:58;;;;;;;41.70;24.60;;;;;;;20.48;74.54;95830.06;5046063;28;20421;-68
2023/06/30 08:01:25;;;;;;;31.87;23.93;;;;;;;20.49;74.77;95823.75;5045295;28;20230;-70
2023/06/30 08:03:51;;;;;;;41.50;23.80;;;;;;;20.52;74.69;95825.28;5045208;28;20205;-68
2023/06/30 08:06:16;;;;;;;29.97;24.30;;;;;;;20.65;73.54;95817.03;5045823;28;20814;-68
2023/06/30 08:08:42;;;;;;;33.17;21.17;;;;;;;20.54;74.07;95814.47;5046319;28;20181;-70
2023/06/30 08:11:07;;;;;;;33.07;22.13;;;;;;;20.59;74.20;95806.91;5049783;28;20290;-69
2023/06/30 08:13:33;;;;;;;50.27;22.10;;;;;;;20.56;74.50;95812.56;5049569;28;20210;-70
2023/06/30 08:15:59;;;;;;;36.97;21.27;;;;;;;20.62;74.19;95809.28;5049950;28;20167;-68
2023/06/30 08:18:26;;;;;;;44.37;22.97;;;;;;;20.64;74.62;95804.66;5049861;28;20466;-69
2023/06/30 08:20:52;;;;;;;26.33;19.90;;;;;;;20.74;74.59;95813.50;5049702;28;20198;-69
2023/06/30 08:23:17;;;;;;;32.60;21.03;;;;;;;20.90;73.90;95811.03;5049289;28;20424;-69
2023/06/30 08:25:43;;;;;;;21.10;17.60;;;;;;;20.85;74.00;95804.47;5049079;28;20179;-69
2023/06/30 08:28:08;;;;;;;24.97;17.80;;;;;;;20.80;73.49;95807.56;5049902;28;20206;-70
2023/06/30 08:30:33;;;;;;;34.70;18.43;;;;;;;20.82;73.21;95804.75;5049502;28;20181;-69
2023/06/30 08:32:59;;;;;;;29.70;17.03;;;;;;;20.76;72.76;95794.66;5049460;28;20281;-69
2023/06/30 08:35:24;;;;;;;27.47;14.33;;;;;;;20.87;72.14;95802.50;5049188;28;20800;-69
2023/06/30 08:37:50;;;;;;;22.70;15.10;;;;;;;20.85;72.69;95791.97;5049813;28;20215;-66
2023/06/30 08:40:24;;;;;;;19.63;15.50;;;;;;;20.83;71.76;95795.75;5051003;28;20230;-69
2023/06/30 08:42:51;;;;;;;19.50;16.03;;;;;;;20.97;71.58;95794.47;5050522;28;20234;-68
2023/06/30 08:45:18;;;;;;;18.17;13.93;;;;;;;20.87;70.07;95802.50;5049952;28;20902;-69
2023/06/30 08:47:44;;;;;;;17.13;14.63;;;;;;;20.82;70.53;95802.94;5049517;28;20413;-68
2023/06/30 08:50:10;;;;;;;19.23;13.20;;;;;;;20.45;71.58;95801.00;5049505;28;20416;-68
2023/06/30 08:52:35;;;;;;;37.93;16.10;;;;;;;20.70;71.46;95804.09;5047535;28;20201;-68
2023/06/30 08:55:02;;;;;;;18.90;14.03;;;;;;;20.71;69.85;95803.94;5048630;28;20198;-70
2023/06/30 08:57:29;;;;;;;28.23;15.97;;;;;;;20.76;69.42;95811.50;5048999;28;20175;-69
2023/06/30 08:59:55;;;;;;;25.43;14.47;;;;;;;20.84;68.54;95811.63;5048372;28;21069;-67
2023/06/30 09:02:22;;;;;;;19.73;15.00;;;;;;;20.88;69.52;95817.50;5048759;28;20499;-70
2023/06/30 09:04:48;;;;;;;22.37;16.77;;;;;;;20.87;68.81;95827.34;5049275;28;20190;-70
2023/06/30 09:07:25;;;;;;;21.20;17.30;;;;;;;20.86;69.39;95824.84;5049870;28;20432;-70
2023/06/30 09:09:55;;;;;;;20.20;15.37;;;;;;;20.76;70.24;95830.16;5048814;28;20182;-67
2023/06/30 09:12:21;;;;;;;29.90;16.90;;;;;;;20.67;70.58;95839.88;5048779;28;20421;-68
2023/06/30 09:14:47;;;;;;;22.20;16.20;;;;;;;20.62;70.63;95841.28;5048043;28;20503;-69
2023/06/30 09:17:12;;;;;;;32.60;16.90;;;;;;;20.68;71.26;95846.88;5048379;28;20175;-69
2023/06/30 09:19:39;;;;;;;22.73;17.03;;;;;;;20.50;71.38;95843.22;5064090;28;20473;-69
2023/06/30 09:22:05;;;;;;;24.70;17.00;;;;;;;20.69;71.11;95845.06;5066832;28;20287;-69
2023/06/30 09:24:30;;;;;;;35.00;18.20;;;;;;;20.59;71.76;95846.91;5067490;28;20460;-69
2023/06/30 09:26:56;;;;;;;20.63;14.70;;;;;;;20.54;71.35;95844.63;5068498;28;20447;-69
2023/06/30 09:29:22;;;;;;;32.90;16.33;;;;;;;20.47;70.76;95840.84;5067465;28;20162;-68
2023/06/30 09:31:52;;;;;;;25.70;15.40;;;;;;;20.48;70.76;95837.19;5068872;28;20869;-70
2023/06/30 09:34:21;;;;;;;28.43;16.03;;;;;;;20.50;71.34;95837.91;5067810;28;20459;-67
2023/06/30 09:36:52;;;;;;;33.87;16.30;;;;;;;20.46;71.24;95834.69;5068429;28;20507;-69
2023/06/30 09:39:18;;;;;;;30.53;17.03;;;;;;;20.46;70.96;95837.34;5069644;28;20516;-68
2023/06/30 09:41:45;;;;;;;23.13;17.10;;;;;;;20.49;71.10;95845.06;5073794;28;20953;-70
2023/06/30 09:44:11;;;;;;;23.00;15.53;;;;;;;20.55;71.04;95837.47;5073031;28;20392;-69
2023/06/30 09:46:57;;;;;;;26.00;17.00;;;;;;;20.70;70.94;95825.44;5070310;28;20496;-67
2023/06/30 09:49:32;;;;;;;23.27;17.57;;;;;;;20.52;70.78;95825.28;5067432;28;20420;-70
2023/06/30 09:51:59;;;;;;;21.90;17.07;;;;;;;20.38;71.27;95829.22;5068294;28;20443;-67
2023/06/30 09:54:26;;;;;;;26.53;18.77;;;;;;;20.46;70.45;95831.19;5067976;28;20579;-68
2023/06/30 09:56:58;;;;;;;47.63;20.30;;;;;;;20.62;70.19;95833.28;5068854;28;20503;-69
2023/06/30 09:59:24;;;;;;;23.10;18.50;;;;;;;20.63;69.75;95829.66;5061351;28;20409;-70
2023/06/30 10:01:54;;;;;;;31.77;18.97;;;;;;;20.57;70.11;95822.22;5049415;28;20518;-69
2023/06/30 10:04:21;;;;;;;26.57;18.70;;;;;;;20.61;70.23;95818.28;5048654;28;20540;-68
2023/06/30 10:06:51;;;;;;;30.63;18.53;;;;;;;20.68;71.11;95822.91;5048394;28;20907;-69
2023/06/30 10:09:20;;;;;;;39.47;20.47;;;;;;;20.68;71.06;95825.56;5048465;28;20415;-69
2023/06/30 10:11:50;;;;;;;39.67;19.20;;;;;;;20.70;71.05;95815.59;5048774;28;21045;-69
2023/06/30 10:14:19;;;;;;;34.07;21.07;;;;;;;20.75;70.91;95807.16;5048366;28;20438;-69
2023/06/30 10:16:47;;;;;;;33.60;18.57;;;;;;;20.80;70.34;95809.41;5048101;28;20405;-68
2023/06/30 10:19:13;;;;;;;35.63;20.90;;;;;;;20.80;69.98;95804.06;5048953;28;20524;-68
2023/06/30 10:21:39;;;;;;;27.13;18.90;;;;;;;20.88;69.88;95799.69;5049044;28;20543;-70
2023/06/30 10:24:05;;;;;;;44.83;23.17;;;;;;;21.02;70.31;95795.69;5049887;28;20524;-69
2023/06/30 10:26:34;;;;;;;28.17;20.47;;;;;;;21.18;69.88;95791.56;5048388;28;20232;-69
2023/06/30 10:29:01;;;;;;;39.47;19.50;;;;;;;21.23;69.48;95795.47;5048406;28;20416;-69
2023/06/30 10:31:26;;;;;;;32.03;19.27;;;;;;;21.26;69.04;95792.50;5048102;28;20470;-68
2023/06/30 10:33:52;;;;;;;26.33;20.43;;;;;;;21.43;69.48;95790.91;5048001;28;21099;-69
2023/06/30 10:36:19;;;;;;;34.87;19.80;;;;;;;21.53;69.30;95785.50;5048349;28;20237;-70
2023/06/30 10:38:46;;;;;;;28.60;20.23;;;;;;;21.61;69.22;95788.25;5048366;28;20811;-69
2023/06/30 10:41:19;;;;;;;24.30;18.43;;;;;;;21.48;69.25;95783.28;5047652;28;20750;-70
2023/06/30 10:44:03;;;;;;;24.40;18.00;;;;;;;21.36;70.67;95779.94;5048306;28;20467;-67
2023/06/30 10:46:47;;;;;;;61.23;22.10;;;;;;;21.53;69.83;95769.50;5048058;28;20490;-68
2023/06/30 10:49:41;;;;;;;48.90;23.00;;;;;;;21.54;68.77;95785.38;5048067;28;20406;-68
2023/06/30 10:52:26;;;;;;;22.70;18.37;;;;;;;21.68;68.69;95793.84;5047538;28;20405;-69
2023/06/30 10:54:51;;;;;;;36.33;19.50;;;;;;;21.82;67.41;95789.81;5048786;28;20432;-69
2023/06/30 10:57:28;;;;;;;38.07;19.90;;;;;;;21.91;66.46;95786.22;5047306;28;21160;-69
2023/06/30 11:00:07;;;;;;;22.13;18.67;;;;;;;21.97;67.06;95766.94;5046576;28;20184;-68
2023/06/30 11:02:34;;;;;;;19.77;17.00;;;;;;;22.14;67.81;95759.91;5046485;28;20937;-69
2023/06/30 11:05:19;;;;;;;23.37;18.20;;;;;;;22.29;66.26;95776.25;5046875;28;20468;-70
2023/06/30 11:07:49;;;;;;;26.27;17.90;;;;;;;22.42;65.46;95776.69;5045253;28;20431;-70
2023/06/30 11:10:26;;;;;;;30.80;17.13;;;;;;;22.44;65.54;95776.50;5047967;28;20560;-68
2023/06/30 11:12:54;;;;;;;28.27;18.33;;;;;;;22.53;64.83;95773.75;5047210;28;20421;-69
2023/06/30 11:15:26;;;;;;;27.40;19.23;;;;;;;22.51;65.38;95772.22;5046614;28;20445;-69
2023/06/30 11:17:51;;;;;;;24.20;16.03;;;;;;;22.75;64.96;95775.06;5044541;28;20524;-68